createdAt,value
2022-11-17T00:02:07.470Z,15.20
2022-11-17T00:04:55.636Z,15.20
2022-11-17T00:07:45.060Z,15.20
2022-11-17T00:10:33.090Z,15.20
2022-11-17T00:13:38.427Z,15.20
2022-11-17T00:16:27.856Z,15.20
2022-11-17T00:19:29.893Z,15.20
2022-11-17T00:22:18.254Z,15.20
2022-11-17T00:25:06.876Z,15.20
2022-11-17T00:27:54.922Z,15.20
2022-11-17T00:31:00.619Z,15.20
2022-11-17T00:34:08.280Z,15.20
2022-11-17T00:36:56.352Z,15.20
2022-11-17T00:39:44.393Z,15.20
2022-11-17T00:42:32.646Z,15.20
2022-11-17T00:45:20.737Z,15.20
2022-11-17T00:48:08.996Z,15.20
2022-11-17T00:50:58.413Z,15.20
2022-11-17T00:53:46.797Z,15.20
2022-11-17T00:56:35.078Z,15.20
2022-11-17T00:59:23.143Z,15.20
2022-11-17T01:02:11.227Z,15.20
2022-11-17T01:04:59.319Z,15.20
2022-11-17T01:07:48.693Z,15.20
2022-11-17T01:10:37.150Z,15.10
2022-11-17T01:13:25.183Z,15.10
2022-11-17T01:16:14.738Z,15.10
2022-11-17T01:19:03.944Z,15.10
2022-11-17T01:21:52.119Z,15.10
2022-11-17T01:24:41.503Z,15.10
2022-11-17T01:27:29.530Z,15.10
2022-11-17T01:30:18.347Z,15.10
2022-11-17T01:33:06.417Z,15.00
2022-11-17T01:35:54.511Z,15.10
2022-11-17T01:38:42.916Z,15.10
2022-11-17T01:41:32.301Z,15.10
2022-11-17T01:44:52.216Z,15.10
2022-11-17T01:47:46.352Z,15.10
2022-11-17T01:50:37.329Z,15.10
2022-11-17T01:53:28.383Z,15.10
2022-11-17T01:56:22.245Z,15.10
2022-11-17T01:59:16.541Z,15.10
2022-11-17T02:02:04.971Z,15.10
2022-11-17T02:04:59.059Z,15.10
2022-11-17T02:07:50.202Z,15.10
2022-11-17T02:10:38.758Z,15.10
2022-11-17T02:13:28.843Z,15.10
2022-11-17T02:16:18.305Z,15.10
2022-11-17T02:19:06.460Z,15.10
2022-11-17T02:22:14.408Z,15.10
2022-11-17T02:25:31.161Z,15.10
2022-11-17T02:28:23.008Z,15.10
2022-11-17T02:31:21.646Z,15.10
2022-11-17T02:34:25.269Z,15.10
2022-11-17T02:37:19.875Z,15.10
2022-11-17T02:40:14.217Z,15.00
2022-11-17T02:43:22.431Z,15.00
2022-11-17T02:46:15.007Z,15.00
2022-11-17T02:49:06.971Z,15.00
2022-11-17T02:51:57.797Z,15.00
2022-11-17T02:54:45.821Z,15.00
2022-11-17T02:57:35.167Z,15.00
2022-11-17T03:00:23.450Z,15.00
2022-11-17T03:03:25.692Z,15.00
2022-11-17T03:06:27.451Z,15.10
2022-11-17T03:09:22.308Z,15.10
2022-11-17T03:12:17.165Z,15.10
2022-11-17T03:15:14.343Z,15.10
2022-11-17T03:18:09.789Z,15.10
2022-11-17T03:21:06.566Z,15.10
2022-11-17T03:24:01.629Z,15.10
2022-11-17T03:26:53.276Z,15.10
2022-11-17T03:29:44.270Z,15.10
2022-11-17T03:32:37.592Z,15.10
2022-11-17T03:35:29.527Z,15.10
2022-11-17T03:38:22.015Z,15.10
2022-11-17T03:41:13.258Z,15.10
2022-11-17T03:44:02.357Z,15.10
2022-11-17T03:46:54.606Z,15.10
2022-11-17T03:49:46.764Z,15.10
2022-11-17T03:52:36.009Z,15.10
2022-11-17T03:55:31.787Z,15.10
2022-11-17T03:58:22.066Z,15.10
2022-11-17T04:01:10.428Z,15.00
2022-11-17T04:03:58.512Z,15.00
2022-11-17T04:06:46.905Z,15.00
2022-11-17T04:09:34.944Z,15.00
2022-11-17T04:12:42.136Z,15.00
2022-11-17T04:15:47.438Z,15.00
2022-11-17T04:18:35.488Z,15.00
2022-11-17T04:21:23.508Z,14.90
2022-11-17T04:24:11.531Z,14.90
2022-11-17T04:27:17.364Z,15.00
2022-11-17T04:30:07.706Z,15.00
2022-11-17T04:32:55.745Z,15.00
2022-11-17T04:35:43.763Z,15.00
2022-11-17T04:38:31.825Z,15.00
2022-11-17T04:41:38.874Z,15.10
2022-11-17T04:44:28.942Z,15.10
2022-11-17T04:47:18.279Z,15.10
2022-11-17T04:50:07.421Z,15.10
2022-11-17T04:52:55.420Z,15.10
2022-11-17T04:55:43.431Z,15.10
2022-11-17T04:58:31.619Z,15.10
2022-11-17T05:01:20.953Z,15.10
2022-11-17T05:04:11.697Z,15.20
2022-11-17T05:06:59.705Z,15.20
2022-11-17T05:09:47.749Z,15.20
2022-11-17T05:12:53.650Z,15.20
2022-11-17T05:15:59.776Z,15.20
2022-11-17T05:18:47.797Z,15.10
2022-11-17T05:21:37.160Z,15.10
2022-11-17T05:24:24.356Z,15.10
2022-11-17T05:27:12.396Z,15.10
2022-11-17T05:30:00.472Z,15.10
2022-11-17T05:32:48.479Z,15.10
2022-11-17T05:35:36.498Z,15.10
2022-11-17T05:38:25.849Z,15.00
2022-11-17T05:41:13.942Z,15.00
2022-11-17T05:44:02.133Z,15.00
2022-11-17T05:46:50.259Z,15.00
2022-11-17T05:49:38.308Z,15.00
2022-11-17T05:52:26.330Z,15.00
2022-11-17T05:55:15.799Z,14.90
2022-11-17T05:58:08.368Z,14.90
2022-11-17T06:00:58.403Z,14.90
2022-11-17T06:03:52.359Z,14.90
2022-11-17T06:06:40.451Z,14.90
2022-11-17T06:09:30.160Z,15.00
2022-11-17T06:12:19.549Z,15.00
2022-11-17T06:15:08.253Z,15.10
2022-11-17T06:17:59.607Z,15.20
2022-11-17T06:20:50.728Z,15.30
2022-11-17T06:23:39.225Z,15.20
2022-11-17T06:26:27.444Z,16.50
2022-11-17T06:29:17.558Z,15.30
2022-11-17T06:32:05.921Z,15.40
2022-11-17T06:34:56.325Z,15.40
2022-11-17T06:37:44.694Z,15.40
2022-11-17T06:40:32.769Z,15.40
2022-11-17T06:43:21.670Z,15.40
2022-11-17T06:46:11.020Z,15.40
2022-11-17T06:48:59.058Z,15.40
2022-11-17T06:51:47.091Z,15.50
2022-11-17T06:54:35.246Z,15.40
2022-11-17T06:57:23.298Z,15.40
2022-11-17T07:00:12.627Z,15.40
2022-11-17T07:03:03.449Z,15.40
2022-11-17T07:05:51.828Z,15.40
2022-11-17T07:08:40.114Z,15.40
2022-11-17T07:11:28.232Z,15.40
2022-11-17T07:14:16.282Z,15.40
2022-11-17T07:17:04.321Z,15.50
2022-11-17T07:19:54.515Z,15.80
2022-11-17T07:22:42.630Z,16.20
2022-11-17T07:25:30.655Z,16.50
2022-11-17T07:28:18.837Z,16.90
2022-11-17T07:31:09.263Z,17.50
2022-11-17T07:33:57.361Z,17.40
2022-11-17T07:36:46.764Z,17.70
2022-11-17T07:39:34.966Z,18.00
2022-11-17T07:42:23.011Z,18.20
2022-11-17T07:45:11.541Z,18.40
2022-11-17T07:48:01.479Z,18.60
2022-11-17T07:50:49.678Z,18.90
2022-11-17T07:53:39.053Z,19.70
2022-11-17T07:56:27.119Z,19.10
2022-11-17T07:59:21.215Z,19.20
2022-11-17T08:02:10.904Z,19.30
2022-11-17T08:04:59.046Z,19.50
2022-11-17T08:07:54.461Z,19.60
2022-11-17T08:10:44.767Z,19.80
2022-11-17T08:13:34.160Z,19.90
2022-11-17T08:16:22.123Z,20.10
2022-11-17T08:19:11.924Z,20.20
2022-11-17T08:21:59.894Z,20.30
2022-11-17T08:24:48.004Z,20.40
2022-11-17T08:27:37.324Z,20.50
2022-11-17T08:30:26.487Z,20.50
2022-11-17T08:33:14.659Z,20.60
2022-11-17T08:36:03.941Z,20.50
2022-11-17T08:38:51.961Z,20.60
2022-11-17T08:41:39.936Z,20.60
2022-11-17T08:44:29.292Z,20.60
2022-11-17T08:47:17.253Z,20.60
2022-11-17T08:50:06.770Z,20.60
2022-11-17T08:52:54.879Z,20.60
2022-11-17T08:55:43.101Z,20.60
2022-11-17T08:58:31.123Z,20.60
2022-11-17T09:01:20.666Z,20.50
2022-11-17T09:04:09.234Z,20.50
2022-11-17T09:06:57.406Z,20.50
2022-11-17T09:09:49.339Z,20.40
2022-11-17T09:12:40.034Z,20.40
2022-11-17T09:15:31.078Z,20.40
2022-11-17T09:18:25.444Z,20.50
2022-11-17T09:21:16.868Z,20.50
2022-11-17T09:24:05.634Z,20.50
2022-11-17T09:26:54.778Z,20.50
2022-11-17T09:29:42.939Z,20.50
2022-11-17T09:32:31.077Z,20.60
2022-11-17T09:35:22.600Z,20.70
2022-11-17T09:38:10.586Z,20.70
2022-11-17T09:40:59.749Z,20.80
2022-11-17T09:43:53.112Z,20.80
2022-11-17T09:46:52.789Z,20.80
2022-11-17T09:49:56.965Z,20.80
2022-11-17T09:52:57.076Z,20.80
2022-11-17T09:55:48.040Z,20.70
2022-11-17T09:58:40.692Z,20.60
2022-11-17T10:01:29.889Z,20.60
2022-11-17T10:04:18.609Z,20.60
2022-11-17T10:07:06.824Z,20.70
2022-11-17T10:09:56.527Z,20.80
2022-11-17T10:12:51.056Z,20.90
2022-11-17T10:15:44.563Z,20.90
2022-11-17T10:18:38.180Z,21.00
2022-11-17T10:21:30.285Z,21.10
2022-11-17T10:24:38.847Z,21.10
2022-11-17T10:27:29.849Z,21.20
2022-11-17T10:30:23.414Z,21.20
2022-11-17T10:33:14.388Z,21.10
2022-11-17T10:36:03.845Z,21.10
2022-11-17T10:38:54.138Z,21.10
2022-11-17T10:41:45.191Z,21.10
2022-11-17T10:44:35.043Z,21.00
2022-11-17T10:47:29.012Z,21.00
2022-11-17T10:50:23.646Z,21.00
2022-11-17T10:53:41.312Z,20.90
2022-11-17T10:56:33.837Z,20.90
2022-11-17T10:59:31.872Z,20.90
2022-11-17T11:02:30.600Z,21.00
2022-11-17T11:05:21.184Z,20.90
2022-11-17T11:08:19.474Z,21.00
2022-11-17T11:11:13.647Z,21.00
2022-11-17T11:14:08.165Z,21.10
2022-11-17T11:16:56.495Z,21.10
2022-11-17T11:19:51.253Z,21.20
2022-11-17T11:22:47.967Z,21.20
2022-11-17T11:25:40.503Z,21.30
2022-11-17T11:28:46.373Z,21.40
2022-11-17T11:31:46.035Z,21.30
2022-11-17T11:35:04.740Z,21.30
2022-11-17T11:38:03.059Z,21.30
2022-11-17T11:41:06.328Z,21.20
2022-11-17T11:44:07.349Z,21.20
2022-11-17T11:47:03.666Z,21.20
2022-11-17T11:49:56.709Z,21.10
2022-11-17T11:52:49.531Z,21.00
2022-11-17T11:55:41.164Z,21.00
2022-11-17T11:58:29.264Z,20.90
2022-11-17T12:01:21.769Z,21.10
2022-11-17T12:04:22.194Z,21.10
2022-11-17T12:07:17.983Z,21.20
2022-11-17T12:10:14.844Z,21.20
2022-11-17T12:13:04.221Z,21.30
2022-11-17T12:15:53.440Z,21.40
2022-11-17T12:18:41.529Z,21.50
2022-11-17T12:21:30.518Z,21.50
2022-11-17T12:24:24.952Z,21.50
2022-11-17T12:27:42.670Z,21.50
2022-11-17T12:30:52.539Z,21.50
2022-11-17T12:34:30.507Z,21.50
2022-11-17T12:37:27.429Z,21.50
2022-11-17T12:40:45.472Z,21.40
2022-11-17T12:43:35.177Z,21.40
2022-11-17T12:46:34.164Z,21.30
2022-11-17T12:49:32.772Z,21.20
2022-11-17T12:52:29.552Z,21.20
2022-11-17T12:55:25.617Z,21.10
2022-11-17T12:58:21.487Z,21.10
2022-11-17T13:01:18.453Z,21.20
2022-11-17T13:04:13.104Z,21.20
2022-11-17T13:07:02.582Z,21.30
2022-11-17T13:09:52.823Z,21.40
2022-11-17T13:12:40.875Z,21.40
2022-11-17T13:15:29.009Z,21.40
2022-11-17T13:18:30.399Z,21.40
2022-11-17T13:21:29.950Z,21.50
2022-11-17T13:24:30.865Z,21.50
2022-11-17T13:27:23.150Z,21.50
2022-11-17T13:30:15.986Z,21.40
2022-11-17T13:33:04.595Z,21.40
2022-11-17T13:36:08.890Z,21.40
2022-11-17T13:39:00.302Z,21.40
2022-11-17T13:41:48.835Z,21.30
2022-11-17T13:44:36.845Z,21.30
2022-11-17T13:47:40.997Z,21.20
2022-11-17T13:50:38.135Z,21.10
2022-11-17T13:53:27.926Z,21.10
2022-11-17T13:56:26.690Z,21.10
2022-11-17T13:59:24.474Z,20.90
2022-11-17T14:02:25.103Z,20.90
2022-11-17T14:05:25.798Z,20.90
2022-11-17T14:08:23.447Z,20.90
2022-11-17T14:11:22.650Z,21.00
2022-11-17T14:14:14.332Z,21.20
2022-11-17T14:17:13.063Z,21.20
2022-11-17T14:20:20.188Z,21.30
2022-11-17T14:23:18.857Z,21.40
2022-11-17T14:26:12.978Z,21.40
2022-11-17T14:29:03.123Z,21.50
2022-11-17T14:31:51.387Z,21.60
2022-11-17T14:34:39.324Z,21.60
2022-11-17T14:37:28.920Z,21.60
2022-11-17T14:40:18.514Z,21.70
2022-11-17T14:43:06.459Z,21.60
2022-11-17T14:45:55.745Z,21.60
2022-11-17T14:48:43.720Z,21.50
2022-11-17T14:51:31.722Z,21.50
2022-11-17T14:54:19.680Z,21.40
2022-11-17T14:57:07.635Z,21.40
2022-11-17T14:59:55.609Z,21.40
2022-11-17T15:02:51.123Z,21.20
2022-11-17T15:05:45.443Z,21.20
2022-11-17T15:08:33.430Z,21.20
2022-11-17T15:11:21.390Z,21.30
2022-11-17T15:14:09.360Z,21.30
2022-11-17T15:16:57.352Z,21.30
2022-11-17T15:19:46.651Z,21.40
2022-11-17T15:22:34.613Z,21.40
2022-11-17T15:25:22.675Z,21.40
2022-11-17T15:28:13.787Z,21.50
2022-11-17T15:31:09.842Z,21.50
2022-11-17T15:33:57.875Z,21.60
2022-11-17T15:36:47.244Z,21.50
2022-11-17T15:39:35.757Z,21.50
2022-11-17T15:42:23.697Z,21.50
2022-11-17T15:45:11.917Z,21.40
2022-11-17T15:47:59.998Z,21.40
2022-11-17T15:50:48.130Z,21.30
2022-11-17T15:53:39.134Z,21.20
2022-11-17T15:56:28.601Z,21.20
2022-11-17T15:59:16.849Z,21.10
2022-11-17T16:02:09.805Z,21.00
2022-11-17T16:04:57.785Z,20.90
2022-11-17T16:10:39.983Z,20.70
2022-11-17T16:13:27.965Z,20.60
2022-11-17T16:16:16.472Z,20.40
2022-11-17T16:19:05.437Z,20.30
2022-11-17T16:21:53.427Z,20.20
2022-11-17T16:24:41.404Z,20.10
2022-11-17T16:27:30.650Z,19.90
2022-11-17T16:30:18.629Z,19.80
2022-11-17T16:33:11.936Z,19.70
2022-11-17T16:36:05.454Z,19.50
2022-11-17T16:39:00.916Z,19.40
2022-11-17T16:41:51.358Z,19.30
2022-11-17T16:44:40.738Z,19.20
2022-11-17T16:47:28.776Z,19.00
2022-11-17T16:50:17.143Z,19.00
2022-11-17T16:53:05.371Z,18.90
2022-11-17T16:55:53.310Z,18.70
2022-11-17T16:58:41.295Z,18.60
2022-11-17T17:01:32.364Z,18.40
2022-11-17T17:04:20.477Z,18.40
2022-11-17T17:07:08.484Z,18.30
2022-11-17T17:09:56.495Z,18.30
2022-11-17T17:12:44.421Z,18.10
2022-11-17T17:15:33.589Z,18.10
2022-11-17T17:18:23.591Z,17.90
2022-11-17T17:21:15.089Z,17.90
2022-11-17T17:24:03.476Z,17.70
2022-11-17T17:26:51.404Z,17.70
2022-11-17T17:29:39.347Z,17.60
2022-11-17T17:32:27.359Z,17.60
2022-11-17T17:35:17.288Z,17.50
2022-11-17T17:38:05.350Z,17.50
2022-11-17T17:40:53.291Z,17.40
2022-11-17T17:43:42.458Z,17.30
2022-11-17T17:46:31.949Z,17.30
2022-11-17T17:49:20.228Z,17.30
2022-11-17T17:52:13.712Z,17.20
2022-11-17T17:55:01.984Z,17.20
2022-11-17T17:57:49.987Z,17.10
2022-11-17T18:00:37.900Z,17.10
2022-11-17T18:03:25.906Z,17.00
2022-11-17T18:06:14.662Z,17.00
2022-11-17T18:09:04.541Z,17.00
2022-11-17T18:11:52.497Z,16.90
2022-11-17T18:14:40.442Z,16.90
2022-11-17T18:17:28.384Z,16.90
2022-11-17T18:20:17.153Z,16.80
2022-11-17T18:23:05.108Z,16.80
2022-11-17T18:25:54.404Z,16.70
2022-11-17T18:28:43.672Z,16.60
2022-11-17T18:31:33.813Z,16.60
2022-11-17T18:34:23.283Z,16.60
2022-11-17T18:37:11.225Z,16.50
2022-11-17T18:39:59.176Z,16.50
2022-11-17T18:42:48.437Z,16.50
2022-11-17T18:45:38.306Z,16.50
2022-11-17T18:48:26.227Z,16.40
2022-11-17T18:51:20.293Z,16.40
2022-11-17T18:54:08.894Z,16.30
2022-11-17T18:56:57.013Z,16.30
2022-11-17T18:59:46.348Z,16.30
2022-11-17T19:02:35.290Z,16.20
2022-11-17T19:05:23.241Z,16.20
2022-11-17T19:08:11.191Z,16.20
2022-11-17T19:11:04.716Z,16.10
2022-11-17T19:13:53.972Z,16.20
2022-11-17T19:16:45.140Z,16.10
2022-11-17T19:19:33.324Z,16.10
2022-11-17T19:22:21.274Z,16.10
2022-11-17T19:25:09.478Z,16.10
2022-11-17T19:27:58.019Z,16.10
2022-11-17T19:30:46.057Z,16.10
2022-11-17T19:33:37.491Z,16.00
2022-11-17T19:36:27.303Z,16.00
2022-11-17T19:39:16.981Z,16.00
2022-11-17T19:42:05.301Z,16.00
2022-11-17T19:44:53.327Z,16.00
2022-11-17T19:47:41.286Z,15.90
2022-11-17T19:50:31.772Z,15.90
2022-11-17T19:53:19.737Z,15.90
2022-11-17T19:56:08.252Z,15.90
2022-11-17T19:58:56.529Z,15.90
2022-11-17T20:01:45.049Z,15.90
2022-11-17T20:04:33.067Z,15.80
2022-11-17T20:07:22.382Z,15.80
2022-11-17T20:10:10.660Z,15.80
2022-11-17T20:12:58.787Z,15.80
2022-11-17T20:15:47.567Z,15.80
2022-11-17T20:18:35.510Z,15.80
2022-11-17T20:21:24.509Z,15.70
2022-11-17T20:24:13.920Z,15.70
2022-11-17T20:27:01.876Z,15.70
2022-11-17T20:29:49.887Z,15.70
2022-11-17T20:32:37.877Z,15.70
2022-11-17T20:35:25.879Z,15.60
2022-11-17T20:38:15.932Z,15.60
2022-11-17T20:41:06.323Z,15.60
2022-11-17T20:43:56.254Z,15.60
2022-11-17T20:46:44.214Z,15.60
2022-11-17T20:49:32.383Z,15.60
2022-11-17T20:52:20.330Z,15.60
2022-11-17T20:55:09.128Z,15.50
2022-11-17T20:57:58.393Z,15.50
2022-11-17T21:00:46.435Z,15.50
2022-11-17T21:03:34.653Z,15.50
2022-11-17T21:06:23.789Z,15.50
2022-11-17T21:09:11.933Z,15.50
2022-11-17T21:12:00.292Z,15.50
2022-11-17T21:14:49.809Z,15.40
2022-11-17T21:17:55.603Z,15.40
2022-11-17T21:20:43.561Z,15.40
2022-11-17T21:23:32.187Z,15.40
2022-11-17T21:26:20.188Z,15.40
2022-11-17T21:29:08.154Z,15.40
2022-11-17T21:31:57.394Z,15.40
2022-11-17T21:34:49.664Z,15.40
2022-11-17T21:37:37.869Z,15.30
2022-11-17T21:40:25.836Z,15.30
2022-11-17T21:43:13.777Z,15.30
2022-11-17T21:46:03.154Z,15.40
2022-11-17T21:48:53.805Z,15.30
2022-11-17T21:51:41.761Z,15.30
2022-11-17T21:54:29.780Z,15.30
2022-11-17T21:57:17.762Z,15.30
2022-11-17T22:00:06.648Z,15.30
2022-11-17T22:02:54.746Z,15.20
2022-11-17T22:05:44.025Z,15.30
2022-11-17T22:08:31.976Z,15.20
2022-11-17T22:11:35.297Z,15.30
2022-11-17T22:14:23.894Z,15.20
2022-11-17T22:17:11.846Z,15.20
2022-11-17T22:19:59.828Z,15.20
2022-11-17T22:22:51.066Z,15.20
2022-11-17T22:25:45.368Z,15.20
2022-11-17T22:28:33.836Z,15.20
2022-11-17T22:31:22.527Z,15.10
2022-11-17T22:34:10.504Z,15.10
2022-11-17T22:36:58.461Z,15.10
2022-11-17T22:39:47.758Z,15.10
2022-11-17T22:42:35.700Z,15.10
2022-11-17T22:45:23.653Z,15.10
2022-11-17T22:48:11.758Z,15.10
2022-11-17T22:50:59.996Z,15.10
2022-11-17T22:53:47.965Z,15.10
2022-11-17T22:56:38.197Z,15.10
2022-11-17T22:59:26.657Z,15.10
2022-11-17T23:02:14.590Z,15.10
2022-11-17T23:05:02.545Z,15.10
2022-11-17T23:07:50.480Z,15.10
2022-11-17T23:10:38.917Z,15.10
2022-11-17T23:13:28.390Z,15.10
2022-11-17T23:16:16.732Z,15.10
2022-11-17T23:19:05.668Z,15.00
2022-11-17T23:21:53.632Z,15.00
2022-11-17T23:24:41.592Z,15.00
2022-11-17T23:27:29.529Z,15.00
2022-11-17T23:30:19.099Z,14.80
2022-11-17T23:33:07.630Z,15.00
2022-11-17T23:35:57.825Z,15.00
2022-11-17T23:38:46.020Z,15.00
2022-11-17T23:41:34.045Z,15.00
2022-11-17T23:44:22.015Z,15.00
2022-11-17T23:47:11.302Z,15.00
2022-11-17T23:49:59.291Z,15.00
2022-11-17T23:52:47.254Z,15.00
2022-11-17T23:55:35.234Z,15.00
2022-11-17T23:58:23.538Z,15.00
